createdAt,value
2022-12-14T00:00:51.541Z,79.50
2022-12-14T00:03:18.887Z,80.18
2022-12-14T00:05:45.977Z,80.18
2022-12-14T00:08:13.356Z,80.18
2022-12-14T00:10:40.738Z,78.68
2022-12-14T00:13:08.445Z,79.06
2022-12-14T00:15:36.699Z,79.39
2022-12-14T00:18:03.878Z,79.90
2022-12-14T00:20:31.139Z,79.59
2022-12-14T00:22:58.205Z,77.78
2022-12-14T00:25:25.377Z,77.07
2022-12-14T00:27:52.447Z,77.13
2022-12-14T00:30:20.377Z,78.38
2022-12-14T00:32:47.856Z,77.44
2022-12-14T00:35:16.738Z,77.41
2022-12-14T00:37:43.954Z,77.96
2022-12-14T00:40:15.778Z,78.52
2022-12-14T00:42:42.686Z,78.34
2022-12-14T00:45:10.086Z,79.22
2022-12-14T00:47:40.676Z,78.71
2022-12-14T00:50:08.367Z,79.30
2022-12-14T00:52:35.334Z,79.55
2022-12-14T00:55:02.357Z,78.83
2022-12-14T00:57:30.637Z,78.62
2022-12-14T00:59:57.528Z,79.32
2022-12-14T01:02:24.447Z,79.08
2022-12-14T01:04:51.460Z,79.15
2022-12-14T01:07:18.333Z,79.06
2022-12-14T01:09:45.264Z,77.72
2022-12-14T01:12:14.068Z,78.33
2022-12-14T01:14:41.142Z,78.81
2022-12-14T01:17:08.016Z,78.67
2022-12-14T01:19:34.965Z,78.54
2022-12-14T01:22:01.897Z,79.39
2022-12-14T01:24:28.802Z,79.30
2022-12-14T01:26:55.725Z,79.44
2022-12-14T01:29:22.646Z,81.15
2022-12-14T01:31:49.857Z,82.11
2022-12-14T01:34:16.805Z,81.01
2022-12-14T01:36:43.618Z,80.53
2022-12-14T01:39:13.972Z,81.05
2022-12-14T01:41:43.978Z,79.71
2022-12-14T01:44:11.036Z,79.26
2022-12-14T01:46:39.206Z,79.05
2022-12-14T01:49:13.158Z,78.93
2022-12-14T01:51:43.137Z,78.84
2022-12-14T01:54:13.204Z,78.62
2022-12-14T01:56:42.006Z,77.56
2022-12-14T01:59:12.458Z,77.84
2022-12-14T02:01:39.426Z,77.28
2022-12-14T02:04:06.776Z,77.95
2022-12-14T02:06:36.507Z,77.28
2022-12-14T02:09:06.116Z,77.71
2022-12-14T02:11:41.816Z,78.69
2022-12-14T02:14:08.966Z,78.19
2022-12-14T02:16:36.042Z,78.06
2022-12-14T02:19:02.925Z,77.67
2022-12-14T02:21:30.985Z,77.57
2022-12-14T02:23:58.178Z,77.30
2022-12-14T02:26:35.116Z,77.65
2022-12-14T02:29:11.856Z,77.80
2022-12-14T02:31:49.292Z,80.16
2022-12-14T02:34:31.999Z,79.82
2022-12-14T02:37:08.845Z,79.90
2022-12-14T02:39:45.765Z,79.90
2022-12-14T02:42:15.519Z,78.65
2022-12-14T02:44:51.946Z,78.36
2022-12-14T02:47:28.762Z,78.81
2022-12-14T02:50:04.577Z,78.72
2022-12-14T02:52:31.280Z,77.81
2022-12-14T02:55:04.024Z,77.84
2022-12-14T02:57:42.624Z,78.03
2022-12-14T03:00:09.797Z,77.98
2022-12-14T03:02:40.922Z,77.40
2022-12-14T03:05:08.333Z,77.88
2022-12-14T03:07:40.995Z,77.59
2022-12-14T03:10:26.000Z,78.24
2022-12-14T03:13:01.612Z,78.23
2022-12-14T03:15:31.769Z,77.45
2022-12-14T03:18:01.052Z,77.38
2022-12-14T03:20:29.895Z,76.73
2022-12-14T03:23:20.136Z,77.59
2022-12-14T03:26:07.108Z,77.41
2022-12-14T03:28:33.913Z,77.03
2022-12-14T03:31:11.813Z,77.73
2022-12-14T03:33:40.232Z,78.30
2022-12-14T03:36:10.732Z,78.71
2022-12-14T03:38:44.467Z,77.31
2022-12-14T03:41:15.400Z,77.57
2022-12-14T03:43:49.825Z,78.12
2022-12-14T03:46:28.955Z,78.00
2022-12-14T03:48:59.678Z,77.25
2022-12-14T03:51:40.411Z,77.31
2022-12-14T03:54:13.162Z,77.91
2022-12-14T03:56:39.776Z,78.01
2022-12-14T03:59:12.539Z,77.06
2022-12-14T04:01:39.245Z,76.79
2022-12-14T04:04:15.735Z,76.99
2022-12-14T04:06:46.695Z,76.94
2022-12-14T04:09:13.266Z,76.54
2022-12-14T04:12:02.553Z,77.70
2022-12-14T04:14:51.698Z,78.33
2022-12-14T04:17:41.962Z,78.16
2022-12-14T04:20:15.046Z,78.20
2022-12-14T04:22:45.100Z,78.75
2022-12-14T04:25:44.967Z,78.05
2022-12-14T04:28:59.507Z,77.51
2022-12-14T04:31:28.650Z,76.92
2022-12-14T04:33:58.611Z,77.67
2022-12-14T04:36:28.595Z,77.29
2022-12-14T04:38:58.609Z,77.39
2022-12-14T04:41:28.707Z,77.97
2022-12-14T04:43:58.544Z,77.97
2022-12-14T04:46:27.942Z,78.24
2022-12-14T04:48:57.845Z,78.27
2022-12-14T04:51:36.580Z,79.10
2022-12-14T04:54:09.769Z,78.98
2022-12-14T04:56:44.493Z,79.07
2022-12-14T04:59:11.288Z,79.98
2022-12-14T05:01:37.944Z,80.46
2022-12-14T05:04:14.106Z,80.03
2022-12-14T05:06:54.765Z,80.20
2022-12-14T05:09:39.275Z,80.19
2022-12-14T05:12:14.754Z,80.33
2022-12-14T05:14:49.473Z,81.27
2022-12-14T05:17:16.422Z,81.20
2022-12-14T05:19:48.770Z,81.47
2022-12-14T05:22:16.194Z,81.35
2022-12-14T05:24:42.785Z,81.66
2022-12-14T05:27:09.695Z,81.90
2022-12-14T05:29:36.357Z,82.91
2022-12-14T05:32:03.604Z,82.63
2022-12-14T05:34:31.590Z,81.88
2022-12-14T05:36:58.419Z,82.58
2022-12-14T05:39:25.130Z,82.64
2022-12-14T05:41:53.533Z,82.67
2022-12-14T05:44:20.415Z,82.65
2022-12-14T05:46:47.196Z,82.91
2022-12-14T05:49:13.849Z,82.10
2022-12-14T05:51:40.631Z,82.83
2022-12-14T05:54:07.569Z,82.87
2022-12-14T05:56:34.195Z,82.08
2022-12-14T05:59:00.900Z,82.55
2022-12-14T06:01:27.567Z,82.73
2022-12-14T06:03:54.687Z,83.84
2022-12-14T06:06:21.584Z,82.93
2022-12-14T06:08:48.462Z,83.02
2022-12-14T06:11:21.148Z,83.88
2022-12-14T06:13:47.942Z,84.26
2022-12-14T06:16:14.771Z,84.29
2022-12-14T06:18:45.726Z,83.71
2022-12-14T06:21:19.506Z,84.10
2022-12-14T06:23:46.457Z,84.30
2022-12-14T06:26:13.854Z,84.87
2022-12-14T06:28:40.562Z,84.90
2022-12-14T06:31:21.385Z,83.86
2022-12-14T06:33:48.390Z,83.77
2022-12-14T06:36:19.222Z,84.09
2022-12-14T06:38:46.119Z,83.83
2022-12-14T06:41:16.068Z,84.24
2022-12-14T06:43:42.804Z,84.43
2022-12-14T06:46:15.085Z,84.24
2022-12-14T06:48:42.865Z,84.58
2022-12-14T06:51:19.064Z,85.01
2022-12-14T06:53:46.561Z,85.86
2022-12-14T06:56:14.621Z,83.67
2022-12-14T06:58:41.965Z,83.30
2022-12-14T07:01:14.301Z,83.32
2022-12-14T07:03:45.150Z,83.61
2022-12-14T07:06:11.847Z,83.28
2022-12-14T07:08:39.015Z,83.28
2022-12-14T07:11:15.728Z,83.31
2022-12-14T07:13:42.701Z,82.56
2022-12-14T07:16:16.588Z,83.09
2022-12-14T07:18:43.353Z,82.94
2022-12-14T07:21:18.945Z,83.04
2022-12-14T07:23:46.296Z,82.81
2022-12-14T07:26:14.672Z,82.67
2022-12-14T07:28:42.207Z,82.53
2022-12-14T07:31:18.145Z,82.70
2022-12-14T07:33:45.080Z,80.73
2022-12-14T07:36:13.182Z,80.98
2022-12-14T07:38:40.337Z,79.92
2022-12-14T07:41:22.735Z,79.87
2022-12-14T07:43:51.230Z,80.35
2022-12-14T07:46:20.370Z,80.73
2022-12-14T07:48:48.298Z,80.48
2022-12-14T07:51:22.396Z,79.87
2022-12-14T07:53:50.472Z,81.86
2022-12-14T07:56:19.428Z,79.62
2022-12-14T07:58:46.087Z,78.92
2022-12-14T08:01:14.501Z,78.63
2022-12-14T08:03:43.144Z,79.04
2022-12-14T08:06:11.086Z,79.11
2022-12-14T08:08:37.741Z,78.97
2022-12-14T08:11:18.326Z,79.42
2022-12-14T08:13:45.334Z,79.89
2022-12-14T08:16:15.473Z,79.46
2022-12-14T08:18:45.429Z,78.95
2022-12-14T08:21:24.190Z,78.03
2022-12-14T08:23:51.448Z,78.53
2022-12-14T08:26:18.506Z,78.32
2022-12-14T08:28:45.915Z,78.21
2022-12-14T08:31:20.913Z,79.27
2022-12-14T08:33:48.376Z,78.42
2022-12-14T08:36:16.800Z,78.24
2022-12-14T08:38:43.498Z,78.64
2022-12-14T08:41:23.913Z,77.48
2022-12-14T08:43:51.729Z,78.44
2022-12-14T08:46:19.109Z,78.04
2022-12-14T08:48:46.017Z,77.09
2022-12-14T08:51:13.009Z,77.60
2022-12-14T08:53:40.670Z,76.89
2022-12-14T08:56:08.680Z,77.02
2022-12-14T08:58:36.777Z,77.83
2022-12-14T09:01:16.201Z,78.46
2022-12-14T09:03:44.892Z,77.20
2022-12-14T09:06:12.906Z,77.49
2022-12-14T09:08:39.595Z,76.54
2022-12-14T09:11:07.226Z,76.05
2022-12-14T09:13:34.541Z,77.30
2022-12-14T09:16:06.490Z,77.40
2022-12-14T09:18:34.568Z,76.34
2022-12-14T09:21:01.248Z,77.00
2022-12-14T09:23:29.132Z,76.44
2022-12-14T09:26:04.261Z,76.68
2022-12-14T09:28:31.769Z,76.96
2022-12-14T09:30:59.591Z,76.07
2022-12-14T09:33:27.560Z,76.04
2022-12-14T09:35:59.700Z,75.59
2022-12-14T09:38:26.393Z,74.95
2022-12-14T09:40:57.718Z,75.17
2022-12-14T09:43:43.911Z,74.36
2022-12-14T09:46:13.623Z,74.05
2022-12-14T09:48:42.204Z,74.00
2022-12-14T09:51:17.956Z,74.95
2022-12-14T09:53:46.838Z,73.90
2022-12-14T09:56:17.583Z,73.73
2022-12-14T09:58:50.898Z,75.10
2022-12-14T10:01:23.899Z,74.82
2022-12-14T10:04:03.263Z,72.23
2022-12-14T10:06:33.215Z,73.01
2022-12-14T10:09:18.738Z,72.24
2022-12-14T10:11:45.500Z,72.07
2022-12-14T10:14:12.080Z,72.71
2022-12-14T10:16:51.663Z,72.40
2022-12-14T10:19:38.211Z,72.27
2022-12-14T10:22:16.281Z,72.37
2022-12-14T10:24:44.828Z,71.85
2022-12-14T10:27:17.997Z,71.86
2022-12-14T10:29:48.027Z,70.74
2022-12-14T10:32:32.583Z,70.92
2022-12-14T10:35:01.593Z,72.31
2022-12-14T10:37:39.747Z,71.70
2022-12-14T10:40:15.558Z,71.62
2022-12-14T10:43:05.193Z,71.69
2022-12-14T10:45:47.759Z,71.17
2022-12-14T10:48:27.314Z,71.45
2022-12-14T10:51:03.291Z,70.64
2022-12-14T10:53:41.163Z,71.25
2022-12-14T10:56:14.126Z,71.28
2022-12-14T10:58:40.839Z,71.68
2022-12-14T11:01:23.334Z,70.95
2022-12-14T11:03:51.406Z,70.27
2022-12-14T11:06:19.190Z,71.32
2022-12-14T11:08:48.710Z,70.60
2022-12-14T11:11:19.141Z,71.41
2022-12-14T11:14:06.384Z,69.79
2022-12-14T11:16:42.449Z,70.33
2022-12-14T11:19:17.342Z,69.81
2022-12-14T11:21:44.499Z,70.45
2022-12-14T11:24:28.144Z,69.84
2022-12-14T11:26:59.205Z,69.65
2022-12-14T11:29:30.723Z,69.87
2022-12-14T11:31:57.652Z,69.79
2022-12-14T11:34:39.306Z,69.92
2022-12-14T11:37:11.862Z,68.82
2022-12-14T11:39:40.136Z,69.36
2022-12-14T11:42:07.119Z,69.06
2022-12-14T11:44:38.732Z,69.49
2022-12-14T11:47:06.978Z,69.71
2022-12-14T11:49:35.148Z,69.50
2022-12-14T11:52:04.860Z,69.66
2022-12-14T11:54:32.295Z,70.47
2022-12-14T11:57:04.499Z,69.80
2022-12-14T11:59:57.874Z,68.72
2022-12-14T12:02:33.266Z,68.42
2022-12-14T12:05:04.868Z,69.26
2022-12-14T12:07:33.718Z,69.34
2022-12-14T12:10:01.465Z,68.78
2022-12-14T12:12:28.325Z,68.96
2022-12-14T12:14:56.810Z,68.41
2022-12-14T12:17:50.915Z,69.13
2022-12-14T12:20:20.324Z,69.29
2022-12-14T12:22:49.637Z,68.85
2022-12-14T12:25:26.641Z,68.23
2022-12-14T12:27:59.920Z,69.36
2022-12-14T12:30:31.185Z,69.53
2022-12-14T12:33:02.751Z,70.27
2022-12-14T12:35:36.612Z,70.18
2022-12-14T12:38:15.277Z,69.89
2022-12-14T12:40:41.944Z,70.00
2022-12-14T12:43:19.333Z,70.24
2022-12-14T12:45:48.025Z,69.28
2022-12-14T12:48:17.621Z,68.55
2022-12-14T12:50:49.914Z,68.31
2022-12-14T12:53:21.976Z,68.33
2022-12-14T12:55:50.971Z,67.83
2022-12-14T12:58:22.779Z,68.83
2022-12-14T13:00:55.679Z,68.80
2022-12-14T13:03:28.050Z,69.50
2022-12-14T13:05:57.516Z,69.30
2022-12-14T13:08:28.711Z,69.42
2022-12-14T13:11:25.080Z,69.34
2022-12-14T13:13:56.981Z,70.40
2022-12-14T13:16:31.299Z,70.13
2022-12-14T13:19:25.343Z,69.79
2022-12-14T13:21:54.622Z,69.78
2022-12-14T13:24:23.445Z,69.98
2022-12-14T13:26:58.950Z,69.99
2022-12-14T13:29:40.036Z,70.17
2022-12-14T13:32:20.688Z,70.04
2022-12-14T13:34:52.555Z,69.93
2022-12-14T13:37:28.326Z,70.49
2022-12-14T13:40:13.843Z,70.66
2022-12-14T13:42:52.022Z,71.66
2022-12-14T13:45:23.617Z,71.76
2022-12-14T13:47:54.284Z,72.88
2022-12-14T13:50:40.701Z,74.11
2022-12-14T13:53:22.747Z,74.12
2022-12-14T13:56:13.471Z,74.80
2022-12-14T13:58:44.897Z,74.83
2022-12-14T14:01:35.506Z,74.35
2022-12-14T14:04:22.526Z,74.77
2022-12-14T14:06:49.998Z,75.49
2022-12-14T14:09:34.866Z,76.26
2022-12-14T14:12:01.515Z,77.13
2022-12-14T14:14:36.717Z,77.62
2022-12-14T14:17:18.748Z,77.80
2022-12-14T14:19:49.499Z,79.17
2022-12-14T14:22:23.258Z,79.60
2022-12-14T14:25:14.124Z,80.75
2022-12-14T14:27:43.680Z,81.50
2022-12-14T14:30:24.727Z,82.11
2022-12-14T14:32:54.245Z,82.19
2022-12-14T14:35:27.489Z,82.74
2022-12-14T14:38:17.259Z,83.17
2022-12-14T14:41:15.318Z,84.18
2022-12-14T14:43:39.374Z,84.89
2022-12-14T14:46:07.589Z,85.61
2022-12-14T14:48:54.356Z,85.70
2022-12-14T14:51:23.796Z,86.34
2022-12-14T14:54:17.095Z,86.99
2022-12-14T14:56:53.097Z,87.49
2022-12-14T14:59:20.512Z,87.85
2022-12-14T15:01:47.212Z,88.06
2022-12-14T15:04:23.612Z,87.92
2022-12-14T15:06:53.845Z,87.80
2022-12-14T15:09:25.717Z,87.80
2022-12-14T15:11:54.723Z,88.56
2022-12-14T15:14:48.262Z,88.57
2022-12-14T15:17:18.945Z,88.83
2022-12-14T15:19:49.876Z,88.97
2022-12-14T15:22:19.776Z,89.25
2022-12-14T15:24:48.171Z,89.90
2022-12-14T15:27:31.767Z,89.03
2022-12-14T15:30:01.557Z,88.92
2022-12-14T15:32:28.539Z,89.27
2022-12-14T15:34:57.267Z,89.50
2022-12-14T15:37:29.253Z,90.01
2022-12-14T15:40:00.385Z,90.46
2022-12-14T15:42:28.174Z,90.58
2022-12-14T15:44:55.633Z,90.90
2022-12-14T15:47:27.079Z,90.87
2022-12-14T15:49:59.770Z,91.18
2022-12-14T15:52:30.351Z,91.64
2022-12-14T15:54:57.549Z,90.17
2022-12-14T15:57:24.576Z,89.87
2022-12-14T15:59:54.006Z,90.55
2022-12-14T16:02:28.577Z,91.03
2022-12-14T16:04:56.260Z,91.24
2022-12-14T16:07:25.921Z,90.94
2022-12-14T16:09:54.654Z,90.28
2022-12-14T16:12:45.452Z,90.12
2022-12-14T16:15:28.585Z,90.22
2022-12-14T16:18:02.162Z,90.36
2022-12-14T16:20:35.827Z,89.77
2022-12-14T16:23:15.819Z,89.36
2022-12-14T16:25:54.624Z,89.16
2022-12-14T16:28:35.295Z,89.22
2022-12-14T16:31:02.014Z,89.61
2022-12-14T16:33:35.737Z,89.32
2022-12-14T16:36:04.450Z,89.06
2022-12-14T16:38:51.305Z,88.83
2022-12-14T16:41:40.110Z,88.39
2022-12-14T16:44:08.535Z,88.60
2022-12-14T16:46:35.492Z,88.33
2022-12-14T16:49:23.448Z,88.73
2022-12-14T16:52:08.720Z,88.51
2022-12-14T16:54:36.187Z,88.79
2022-12-14T16:57:05.776Z,88.87
2022-12-14T16:59:41.116Z,88.85
2022-12-14T17:02:40.465Z,89.83
2022-12-14T17:05:13.099Z,91.47
2022-12-14T17:07:39.832Z,90.45
2022-12-14T17:10:14.498Z,88.27
2022-12-14T17:12:45.932Z,88.15
2022-12-14T17:15:13.628Z,89.81
2022-12-14T17:17:40.551Z,89.37
2022-12-14T17:20:13.659Z,89.34
2022-12-14T17:22:40.923Z,88.41
2022-12-14T17:25:07.762Z,88.36
2022-12-14T17:27:34.394Z,88.53
2022-12-14T17:30:01.623Z,88.02
2022-12-14T17:32:30.744Z,88.96
2022-12-14T17:34:58.306Z,88.67
2022-12-14T17:37:27.651Z,87.91
2022-12-14T17:40:00.050Z,87.83
2022-12-14T17:42:26.851Z,88.04
2022-12-14T17:44:57.365Z,88.63
2022-12-14T17:47:24.627Z,88.53
2022-12-14T17:49:51.315Z,88.54
2022-12-14T17:52:26.297Z,88.12
2022-12-14T17:54:53.076Z,87.97
2022-12-14T17:57:21.084Z,88.88
2022-12-14T17:59:48.120Z,87.70
2022-12-14T18:02:25.987Z,87.74
2022-12-14T18:04:52.840Z,87.12
2022-12-14T18:07:19.469Z,86.95
2022-12-14T18:09:46.161Z,86.83
2022-12-14T18:12:23.202Z,87.19
2022-12-14T18:14:50.435Z,87.27
2022-12-14T18:17:22.203Z,87.06
2022-12-14T18:19:49.501Z,87.25
2022-12-14T18:22:16.756Z,87.41
2022-12-14T18:24:43.615Z,86.08
2022-12-14T18:27:13.774Z,84.91
2022-12-14T18:29:40.420Z,85.48
2022-12-14T18:32:07.068Z,85.43
2022-12-14T18:34:33.720Z,85.91
2022-12-14T18:37:01.828Z,86.32
2022-12-14T18:39:28.445Z,86.49
2022-12-14T18:41:55.170Z,87.12
2022-12-14T18:44:22.704Z,85.18
2022-12-14T18:46:49.778Z,85.57
2022-12-14T18:49:16.608Z,85.64
2022-12-14T18:51:43.842Z,86.27
2022-12-14T18:54:11.760Z,85.52
2022-12-14T18:56:40.764Z,85.75
2022-12-14T18:59:07.414Z,85.54
2022-12-14T19:01:34.301Z,84.54
2022-12-14T19:04:01.575Z,83.72
2022-12-14T19:06:45.446Z,83.26
2022-12-14T19:09:14.037Z,83.30
2022-12-14T19:11:43.301Z,83.49
2022-12-14T19:14:10.794Z,82.60
2022-12-14T19:16:48.299Z,83.16
2022-12-14T19:19:14.936Z,83.10
2022-12-14T19:21:41.733Z,83.31
2022-12-14T19:24:08.861Z,83.06
2022-12-14T19:26:38.077Z,82.74
2022-12-14T19:29:04.915Z,82.97
2022-12-14T19:31:32.595Z,83.06
2022-12-14T19:33:59.554Z,82.38
2022-12-14T19:36:26.261Z,82.06
2022-12-14T19:38:52.956Z,81.97
2022-12-14T19:41:21.609Z,82.42
2022-12-14T19:43:48.598Z,81.71
2022-12-14T19:46:16.481Z,81.35
2022-12-14T19:48:43.261Z,79.21
2022-12-14T19:51:19.518Z,79.32
2022-12-14T19:53:47.516Z,79.90
2022-12-14T19:56:15.431Z,80.32
2022-12-14T19:58:42.163Z,80.57
2022-12-14T20:01:18.443Z,79.69
2022-12-14T20:03:45.567Z,79.78
2022-12-14T20:06:12.502Z,80.22
2022-12-14T20:08:39.163Z,80.39
2022-12-14T20:11:07.100Z,80.05
2022-12-14T20:13:34.183Z,80.43
2022-12-14T20:16:02.258Z,80.24
2022-12-14T20:18:33.289Z,79.80
2022-12-14T20:21:03.968Z,79.59
2022-12-14T20:23:32.099Z,79.19
2022-12-14T20:26:03.305Z,79.44
2022-12-14T20:28:30.547Z,79.43
2022-12-14T20:30:57.288Z,79.16
2022-12-14T20:33:29.637Z,79.09
2022-12-14T20:35:57.077Z,79.49
2022-12-14T20:38:23.840Z,79.16
2022-12-14T20:40:50.799Z,79.29
2022-12-14T20:43:17.628Z,79.12
2022-12-14T20:45:44.358Z,79.02
2022-12-14T20:48:11.427Z,79.17
2022-12-14T20:50:39.556Z,79.06
2022-12-14T20:53:06.785Z,79.20
2022-12-14T20:55:34.444Z,79.09
2022-12-14T20:58:01.640Z,79.84
2022-12-14T21:00:28.699Z,78.88
2022-12-14T21:02:56.793Z,79.15
2022-12-14T21:05:23.558Z,78.34
2022-12-14T21:07:50.670Z,78.50
2022-12-14T21:10:17.426Z,78.92
2022-12-14T21:12:47.283Z,78.67
2022-12-14T21:15:13.885Z,78.73
2022-12-14T21:17:40.942Z,78.66
2022-12-14T21:20:07.886Z,79.29
2022-12-14T21:22:35.549Z,80.31
2022-12-14T21:25:04.078Z,79.04
2022-12-14T21:27:32.243Z,78.71
2022-12-14T21:30:00.267Z,78.92
2022-12-14T21:32:27.182Z,78.87
2022-12-14T21:34:53.888Z,79.04
2022-12-14T21:37:21.083Z,79.01
2022-12-14T21:39:54.544Z,78.71
2022-12-14T21:42:23.262Z,78.41
2022-12-14T21:44:50.710Z,79.31
2022-12-14T21:47:21.492Z,78.05
2022-12-14T21:49:48.502Z,77.74
2022-12-14T21:52:17.398Z,77.93
2022-12-14T21:54:44.206Z,77.99
2022-12-14T21:57:32.077Z,78.25
2022-12-14T21:59:58.801Z,78.41
2022-12-14T22:02:38.939Z,78.59
2022-12-14T22:05:05.820Z,78.08
2022-12-14T22:07:33.600Z,78.07
2022-12-14T22:10:00.295Z,78.08
2022-12-14T22:12:27.010Z,78.72
2022-12-14T22:14:57.274Z,77.43
2022-12-14T22:17:24.255Z,77.26
2022-12-14T22:19:52.267Z,77.16
2022-12-14T22:22:18.902Z,77.24
2022-12-14T22:24:48.154Z,77.52
2022-12-14T22:27:15.114Z,77.90
2022-12-14T22:29:41.836Z,78.43
2022-12-14T22:32:11.073Z,77.94
2022-12-14T22:34:37.806Z,77.77
2022-12-14T22:37:04.444Z,77.34
2022-12-14T22:39:31.180Z,77.13
2022-12-14T22:41:57.968Z,76.88
2022-12-14T22:44:24.712Z,77.23
2022-12-14T22:46:51.511Z,77.32
2022-12-14T22:49:19.285Z,77.35
2022-12-14T22:51:46.189Z,76.91
2022-12-14T22:54:17.264Z,76.52
2022-12-14T22:56:45.978Z,76.47
2022-12-14T22:59:13.714Z,76.64
2022-12-14T23:01:41.236Z,77.02
2022-12-14T23:04:08.922Z,77.40
2022-12-14T23:06:36.271Z,77.14
2022-12-14T23:09:21.546Z,76.99
2022-12-14T23:12:11.343Z,76.49
2022-12-14T23:14:57.354Z,76.72
2022-12-14T23:17:47.137Z,76.29
2022-12-14T23:20:33.027Z,76.24
2022-12-14T23:23:18.880Z,76.87
2022-12-14T23:26:04.498Z,77.36
2022-12-14T23:28:51.396Z,77.54
2022-12-14T23:31:37.361Z,76.91
2022-12-14T23:34:22.618Z,77.01
2022-12-14T23:37:07.771Z,76.39
2022-12-14T23:39:53.958Z,75.96
2022-12-14T23:42:39.219Z,75.92
2022-12-14T23:45:24.730Z,76.34
2022-12-14T23:48:09.796Z,76.68
2022-12-14T23:50:55.445Z,76.14
2022-12-14T23:53:40.608Z,76.51
2022-12-14T23:56:25.837Z,75.98
2022-12-14T23:59:14.004Z,75.65
